CheckWX is a tool to help pilots better visualize weather data.  It is not intended as a substitute for an official pre-flight weather briefing.

13:42:27 UTC

EDDH TAF
Hamburg Airport
Hamburg, Germany
TAF EDDH 201100Z 2012/2118 19009KT CAVOK TEMPO 2013/2021 21015G30KT 4000 TSRA FEW012 BKN040CB PROB40 TEMPO 2015/2017 25025G45KT 2000 +TSRAGR PROB30 TEMPO 2017/2019 14004KT BKN012 BECMG 2105/2107 25011KT TEMPO 2109/2113 28015G25KT BECMG 2113/2115 32015G25KT

Jul-20@
12:00 UTC

Jul-20 @ 12:00 UTC

Jul-21@
05:00 UTC

Jul-21 @ 05:00 UTC

TAF EDDH 201100Z 2012/2118 19009KT CAVOK
Wind
  • 190° at 9 KTS
Conditions
No significant weather
Cloud Levels
  • No significant clouds

Jul-20@
13:00 UTC

Jul-20 @ 13:00 UTC

Jul-20@
21:00 UTC

Jul-20 @ 21:00 UTC

TEMPO 2013/2021 21015G30KT 4000 TSRA FEW012 BKN040CB

Temporary

Temporary Changes expected for less than half the time period

Wind
  • 210° at 15 KTS
  • {Gusting to 30 KTS
Conditions
Thunderstorm, Rain
Cloud Levels
  • Few at 1,200' AGL
  • Broken at 4,000' AGL

Jul-20@
15:00 UTC

Jul-20 @ 15:00 UTC

Jul-20@
17:00 UTC

Jul-20 @ 17:00 UTC

PROB40 TEMPO 2015/2017 25025G45KT 2000 +TSRAGR

Temporary - 40% Likelihood

Temporary - 40% Likelihood during this time.

Wind
  • 250° at 25 KTS
  • {Gusting to 45 KTS
Conditions
Heavy Thunderstorm, Heavy Rain, Heavy Thunderstorm, Heavy Hail

Jul-20@
17:00 UTC

Jul-20 @ 17:00 UTC

Jul-20@
19:00 UTC

Jul-20 @ 19:00 UTC

PROB30 TEMPO 2017/2019 14004KT BKN012

Temporary - 30% Likelihood

Temporary - 30% Likelihood during this time.

Wind
  • 140° at 4 KTS
Cloud Levels
  • Broken at 1,200' AGL

Jul-21@
05:00 UTC

Jul-21 @ 05:00 UTC

Jul-21@
13:00 UTC

Jul-21 @ 13:00 UTC

BECMG 2105/2107 25011KT

Becoming

Becoming Conditions expected by Sun, Jul 21, 2019 @ 07:00 UTC

Wind
  • 250° at 11 KTS
Conditions
No significant weather
Cloud Levels
  • No significant clouds

Jul-21@
09:00 UTC

Jul-21 @ 09:00 UTC

Jul-21@
13:00 UTC

Jul-21 @ 13:00 UTC

TEMPO 2109/2113 28015G25KT

Temporary

Temporary Changes expected for less than half the time period

Wind
  • 280° at 15 KTS
  • {Gusting to 25 KTS

Jul-21@
13:00 UTC

Jul-21 @ 13:00 UTC

Jul-21@
18:00 UTC

Jul-21 @ 18:00 UTC

BECMG 2113/2115 32015G25KT

Becoming

Becoming Conditions expected by Sun, Jul 21, 2019 @ 15:00 UTC

Wind
  • 320° at 15 KTS
  • {Gusting to 25 KTS
Conditions
No significant weather
Cloud Levels
  • No significant clouds